Mount Vernon, North Carolina
Current Conditions -  °F | °C
As of 10:35 PM on Monday 22 Dec 2014 (Local Time) from KRUQ Reporting Station
Moderate Rain Moderate Rain  
Wind Chill: 32°   Ceiling: 300
Heat Index: 36°   Visibility: 2.5mi
Dew Point: 36°   Wind: 5mph
Humidity: 100%   Direction: 20°NNE
Pressure: 30.06"   Gusts: NA
Location:  35.7427°N, 80.712°W
Report Text: KRUQ 230335Z AUTO 02004KT 2 1/2SM RA OVC003 02/02 A3006 RMK AO2 P0004 T00200020
Loading
Personal Weather Stations






























Interactive Weather Map New forecast layout! Learn more

10-Day Weather Forecast

Advertisements
Track Severe Weather on mobile